sensor_id;sensor_type;location;lat;lon;timestamp;P1;durP1;ratioP1;P2;durP2;ratioP2
20593;SDS011;10455;48.732;10.266;2022-07-06T00:00:52;4.37;;;3.93;;
20593;SDS011;10455;48.732;10.266;2022-07-06T00:05:54;7.07;;;4.37;;
20593;SDS011;10455;48.732;10.266;2022-07-06T00:10:59;5.63;;;4.27;;
20593;SDS011;10455;48.732;10.266;2022-07-06T00:16:02;6.27;;;4.00;;
20593;SDS011;10455;48.732;10.266;2022-07-06T00:21:04;4.20;;;3.80;;
20593;SDS011;10455;48.732;10.266;2022-07-06T00:26:08;4.57;;;4.13;;
20593;SDS011;10455;48.732;10.266;2022-07-06T00:31:10;5.63;;;4.03;;
20593;SDS011;10455;48.732;10.266;2022-07-06T00:36:13;5.47;;;4.00;;
20593;SDS011;10455;48.732;10.266;2022-07-06T00:41:16;8.63;;;4.27;;
20593;SDS011;10455;48.732;10.266;2022-07-06T00:46:19;4.43;;;3.97;;
20593;SDS011;10455;48.732;10.266;2022-07-06T00:51:25;4.93;;;4.00;;
20593;SDS011;10455;48.732;10.266;2022-07-06T00:56:32;5.67;;;4.20;;
20593;SDS011;10455;48.732;10.266;2022-07-06T01:01:35;4.90;;;4.40;;
20593;SDS011;10455;48.732;10.266;2022-07-06T01:06:38;4.43;;;4.03;;
20593;SDS011;10455;48.732;10.266;2022-07-06T01:11:42;5.30;;;4.50;;
20593;SDS011;10455;48.732;10.266;2022-07-06T01:16:44;5.10;;;4.60;;
20593;SDS011;10455;48.732;10.266;2022-07-06T01:21:48;6.03;;;4.73;;
20593;SDS011;10455;48.732;10.266;2022-07-06T01:26:50;5.37;;;4.87;;
20593;SDS011;10455;48.732;10.266;2022-07-06T01:31:52;5.63;;;5.20;;
20593;SDS011;10455;48.732;10.266;2022-07-06T01:36:57;5.60;;;5.00;;
20593;SDS011;10455;48.732;10.266;2022-07-06T01:41:59;5.73;;;5.23;;
20593;SDS011;10455;48.732;10.266;2022-07-06T01:47:01;6.53;;;4.77;;
20593;SDS011;10455;48.732;10.266;2022-07-06T01:52:06;6.33;;;5.37;;
20593;SDS011;10455;48.732;10.266;2022-07-06T01:57:08;5.80;;;5.20;;
20593;SDS011;10455;48.732;10.266;2022-07-06T02:02:10;6.47;;;5.30;;
20593;SDS011;10455;48.732;10.266;2022-07-06T02:07:13;5.90;;;5.40;;
20593;SDS011;10455;48.732;10.266;2022-07-06T02:12:16;7.67;;;6.23;;
20593;SDS011;10455;48.732;10.266;2022-07-06T02:17:18;6.20;;;5.60;;
20593;SDS011;10455;48.732;10.266;2022-07-06T02:22:21;6.27;;;5.63;;
20593;SDS011;10455;48.732;10.266;2022-07-06T02:27:24;6.93;;;6.10;;
20593;SDS011;10455;48.732;10.266;2022-07-06T02:32:26;6.10;;;5.50;;
20593;SDS011;10455;48.732;10.266;2022-07-06T02:37:30;8.07;;;5.57;;
20593;SDS011;10455;48.732;10.266;2022-07-06T02:42:32;6.33;;;5.77;;
20593;SDS011;10455;48.732;10.266;2022-07-06T02:47:34;5.80;;;5.30;;
20593;SDS011;10455;48.732;10.266;2022-07-06T02:52:39;7.47;;;6.07;;
20593;SDS011;10455;48.732;10.266;2022-07-06T02:57:41;7.00;;;6.07;;
20593;SDS011;10455;48.732;10.266;2022-07-06T03:02:43;8.37;;;5.87;;
20593;SDS011;10455;48.732;10.266;2022-07-06T03:07:47;6.63;;;5.80;;
20593;SDS011;10455;48.732;10.266;2022-07-06T03:12:49;7.40;;;6.37;;
20593;SDS011;10455;48.732;10.266;2022-07-06T03:17:51;10.87;;;6.30;;
20593;SDS011;10455;48.732;10.266;2022-07-06T03:22:55;7.07;;;6.27;;
20593;SDS011;10455;48.732;10.266;2022-07-06T03:27:57;9.97;;;6.97;;
20593;SDS011;10455;48.732;10.266;2022-07-06T03:32:59;8.77;;;6.17;;
20593;SDS011;10455;48.732;10.266;2022-07-06T03:38:02;7.60;;;6.30;;
20593;SDS011;10455;48.732;10.266;2022-07-06T03:43:05;7.30;;;6.53;;
20593;SDS011;10455;48.732;10.266;2022-07-06T03:48:07;8.13;;;6.60;;
20593;SDS011;10455;48.732;10.266;2022-07-06T03:53:10;5.57;;;5.07;;
20593;SDS011;10455;48.732;10.266;2022-07-06T03:58:13;7.03;;;6.43;;
20593;SDS011;10455;48.732;10.266;2022-07-06T04:03:15;8.30;;;5.90;;
20593;SDS011;10455;48.732;10.266;2022-07-06T04:08:18;5.80;;;5.30;;
20593;SDS011;10455;48.732;10.266;2022-07-06T04:13:21;5.77;;;5.13;;
20593;SDS011;10455;48.732;10.266;2022-07-06T04:18:23;6.57;;;4.80;;
20593;SDS011;10455;48.732;10.266;2022-07-06T04:23:27;6.03;;;4.90;;
20593;SDS011;10455;48.732;10.266;2022-07-06T04:28:29;3.90;;;3.60;;
20593;SDS011;10455;48.732;10.266;2022-07-06T04:33:31;3.87;;;3.33;;
20593;SDS011;10455;48.732;10.266;2022-07-06T04:38:36;4.88;;;3.00;;
20593;SDS011;10455;48.732;10.266;2022-07-06T04:43:38;4.55;;;2.83;;
20593;SDS011;10455;48.732;10.266;2022-07-06T04:48:41;3.08;;;2.53;;
20593;SDS011;10455;48.732;10.266;2022-07-06T04:53:45;4.75;;;2.58;;
20593;SDS011;10455;48.732;10.266;2022-07-06T04:58:47;3.20;;;2.40;;
20593;SDS011;10455;48.732;10.266;2022-07-06T05:03:49;2.45;;;2.25;;
20593;SDS011;10455;48.732;10.266;2022-07-06T05:08:53;4.47;;;2.75;;
20593;SDS011;10455;48.732;10.266;2022-07-06T05:13:55;3.33;;;3.03;;
20593;SDS011;10455;48.732;10.266;2022-07-06T05:18:57;4.68;;;2.67;;
20593;SDS011;10455;48.732;10.266;2022-07-06T05:24:01;3.22;;;2.70;;
20593;SDS011;10455;48.732;10.266;2022-07-06T05:29:03;4.20;;;2.88;;
20593;SDS011;10455;48.732;10.266;2022-07-06T05:34:05;5.28;;;2.40;;
20593;SDS011;10455;48.732;10.266;2022-07-06T05:39:09;3.08;;;2.45;;
20593;SDS011;10455;48.732;10.266;2022-07-06T05:44:11;2.50;;;2.03;;
20593;SDS011;10455;48.732;10.266;2022-07-06T05:49:14;3.08;;;2.10;;
20593;SDS011;10455;48.732;10.266;2022-07-06T05:54:35;3.17;;;2.50;;
20593;SDS011;10455;48.732;10.266;2022-07-06T05:59:37;2.55;;;2.35;;
20593;SDS011;10455;48.732;10.266;2022-07-06T06:04:39;2.58;;;2.38;;
20593;SDS011;10455;48.732;10.266;2022-07-06T06:09:43;4.75;;;2.97;;
20593;SDS011;10455;48.732;10.266;2022-07-06T06:14:45;2.65;;;2.40;;
20593;SDS011;10455;48.732;10.266;2022-07-06T06:19:47;2.70;;;2.50;;
20593;SDS011;10455;48.732;10.266;2022-07-06T06:24:51;2.75;;;2.33;;
20593;SDS011;10455;48.732;10.266;2022-07-06T06:29:53;2.90;;;2.40;;
20593;SDS011;10455;48.732;10.266;2022-07-06T06:34:56;2.97;;;2.63;;
20593;SDS011;10455;48.732;10.266;2022-07-06T06:39:59;3.25;;;2.60;;
20593;SDS011;10455;48.732;10.266;2022-07-06T06:45:02;2.50;;;2.30;;
20593;SDS011;10455;48.732;10.266;2022-07-06T06:50:05;3.13;;;2.42;;
20593;SDS011;10455;48.732;10.266;2022-07-06T06:55:09;5.68;;;2.78;;
20593;SDS011;10455;48.732;10.266;2022-07-06T07:00:12;3.35;;;2.30;;
20593;SDS011;10455;48.732;10.266;2022-07-06T07:05:14;3.35;;;2.20;;
20593;SDS011;10455;48.732;10.266;2022-07-06T07:10:18;3.35;;;2.13;;
20593;SDS011;10455;48.732;10.266;2022-07-06T07:15:21;4.35;;;2.33;;
20593;SDS011;10455;48.732;10.266;2022-07-06T07:20:23;4.25;;;2.50;;
20593;SDS011;10455;48.732;10.266;2022-07-06T07:25:27;3.78;;;2.28;;
20593;SDS011;10455;48.732;10.266;2022-07-06T07:30:30;3.33;;;2.00;;
20593;SDS011;10455;48.732;10.266;2022-07-06T07:35:32;3.75;;;2.25;;
20593;SDS011;10455;48.732;10.266;2022-07-06T07:40:36;4.15;;;2.78;;
20593;SDS011;10455;48.732;10.266;2022-07-06T07:45:38;3.08;;;2.28;;
20593;SDS011;10455;48.732;10.266;2022-07-06T07:50:40;3.97;;;2.15;;
20593;SDS011;10455;48.732;10.266;2022-07-06T07:55:44;3.95;;;2.28;;
20593;SDS011;10455;48.732;10.266;2022-07-06T08:00:46;2.78;;;2.05;;
20593;SDS011;10455;48.732;10.266;2022-07-06T08:05:48;2.55;;;1.90;;
20593;SDS011;10455;48.732;10.266;2022-07-06T08:10:52;3.03;;;2.03;;
20593;SDS011;10455;48.732;10.266;2022-07-06T08:15:54;2.80;;;1.80;;
20593;SDS011;10455;48.732;10.266;2022-07-06T08:20:56;2.15;;;1.95;;
20593;SDS011;10455;48.732;10.266;2022-07-06T08:26:00;2.17;;;1.98;;
20593;SDS011;10455;48.732;10.266;2022-07-06T08:31:02;4.10;;;1.98;;
20593;SDS011;10455;48.732;10.266;2022-07-06T08:36:05;3.03;;;1.98;;
20593;SDS011;10455;48.732;10.266;2022-07-06T08:41:09;2.45;;;1.80;;
20593;SDS011;10455;48.732;10.266;2022-07-06T08:46:13;2.25;;;1.85;;
20593;SDS011;10455;48.732;10.266;2022-07-06T08:51:15;2.95;;;2.10;;
20593;SDS011;10455;48.732;10.266;2022-07-06T08:56:19;2.95;;;1.90;;
20593;SDS011;10455;48.732;10.266;2022-07-06T09:01:21;2.13;;;1.90;;
20593;SDS011;10455;48.732;10.266;2022-07-06T09:06:24;4.53;;;2.10;;
20593;SDS011;10455;48.732;10.266;2022-07-06T09:11:29;3.72;;;1.98;;
20593;SDS011;10455;48.732;10.266;2022-07-06T09:16:31;4.55;;;2.00;;
20593;SDS011;10455;48.732;10.266;2022-07-06T09:21:34;5.18;;;1.92;;
20593;SDS011;10455;48.732;10.266;2022-07-06T09:26:39;2.40;;;1.90;;
20593;SDS011;10455;48.732;10.266;2022-07-06T09:31:42;3.83;;;2.00;;
20593;SDS011;10455;48.732;10.266;2022-07-06T09:36:56;1.65;;;1.50;;
20593;SDS011;10455;48.732;10.266;2022-07-06T09:42:00;4.65;;;1.90;;
20593;SDS011;10455;48.732;10.266;2022-07-06T09:47:05;4.13;;;1.75;;
20593;SDS011;10455;48.732;10.266;2022-07-06T09:52:09;2.50;;;2.08;;
20593;SDS011;10455;48.732;10.266;2022-07-06T09:57:13;10.95;;;3.95;;
20593;SDS011;10455;48.732;10.266;2022-07-06T10:02:15;2.95;;;1.88;;
20593;SDS011;10455;48.732;10.266;2022-07-06T10:07:17;2.67;;;1.67;;
20593;SDS011;10455;48.732;10.266;2022-07-06T10:12:23;26.05;;;4.18;;
20593;SDS011;10455;48.732;10.266;2022-07-06T10:17:26;3.90;;;2.13;;
20593;SDS011;10455;48.732;10.266;2022-07-06T10:22:28;2.42;;;1.90;;
20593;SDS011;10455;48.732;10.266;2022-07-06T10:27:32;3.35;;;2.20;;
20593;SDS011;10455;48.732;10.266;2022-07-06T10:32:37;3.25;;;2.00;;
20593;SDS011;10455;48.732;10.266;2022-07-06T10:37:41;2.90;;;2.30;;
20593;SDS011;10455;48.732;10.266;2022-07-06T10:42:45;3.90;;;1.70;;
20593;SDS011;10455;48.732;10.266;2022-07-06T10:53:21;2.25;;;1.80;;
20593;SDS011;10455;48.732;10.266;2022-07-06T10:58:46;3.97;;;1.98;;
20593;SDS011;10455;48.732;10.266;2022-07-06T11:04:04;2.80;;;1.80;;
20593;SDS011;10455;48.732;10.266;2022-07-06T11:09:07;7.32;;;2.45;;
20593;SDS011;10455;48.732;10.266;2022-07-06T11:14:12;2.70;;;2.13;;
20593;SDS011;10455;48.732;10.266;2022-07-06T11:19:16;2.58;;;1.80;;
20593;SDS011;10455;48.732;10.266;2022-07-06T11:24:20;2.60;;;1.90;;
20593;SDS011;10455;48.732;10.266;2022-07-06T11:29:25;3.40;;;1.90;;
20593;SDS011;10455;48.732;10.266;2022-07-06T11:34:29;6.43;;;2.03;;
20593;SDS011;10455;48.732;10.266;2022-07-06T11:39:33;2.88;;;2.20;;
20593;SDS011;10455;48.732;10.266;2022-07-06T11:44:39;2.10;;;1.90;;
20593;SDS011;10455;48.732;10.266;2022-07-06T11:49:41;3.10;;;2.22;;
20593;SDS011;10455;48.732;10.266;2022-07-06T11:54:46;5.60;;;1.90;;
20593;SDS011;10455;48.732;10.266;2022-07-06T11:59:49;4.32;;;2.00;;
20593;SDS011;10455;48.732;10.266;2022-07-06T12:04:52;2.97;;;1.92;;
20593;SDS011;10455;48.732;10.266;2022-07-06T12:09:55;1.90;;;1.77;;
20593;SDS011;10455;48.732;10.266;2022-07-06T12:14:58;1.85;;;1.65;;
20593;SDS011;10455;48.732;10.266;2022-07-06T12:20:01;7.43;;;2.85;;
20593;SDS011;10455;48.732;10.266;2022-07-06T12:25:03;2.40;;;1.67;;
20593;SDS011;10455;48.732;10.266;2022-07-06T12:30:11;2.50;;;1.83;;
20593;SDS011;10455;48.732;10.266;2022-07-06T12:35:14;1.70;;;1.55;;
20593;SDS011;10455;48.732;10.266;2022-07-06T12:40:17;2.80;;;1.77;;
20593;SDS011;10455;48.732;10.266;2022-07-06T12:45:27;1.52;;;1.42;;
20593;SDS011;10455;48.732;10.266;2022-07-06T12:50:33;2.00;;;1.60;;
20593;SDS011;10455;48.732;10.266;2022-07-06T12:55:36;2.78;;;1.73;;
20593;SDS011;10455;48.732;10.266;2022-07-06T13:00:44;3.30;;;1.63;;
20593;SDS011;10455;48.732;10.266;2022-07-06T13:05:49;4.13;;;1.85;;
20593;SDS011;10455;48.732;10.266;2022-07-06T13:10:51;2.28;;;1.75;;
20593;SDS011;10455;48.732;10.266;2022-07-06T13:15:55;1.95;;;1.70;;
20593;SDS011;10455;48.732;10.266;2022-07-06T13:20:57;4.05;;;2.10;;
20593;SDS011;10455;48.732;10.266;2022-07-06T13:26:00;5.63;;;1.98;;
20593;SDS011;10455;48.732;10.266;2022-07-06T13:31:03;3.28;;;1.85;;
20593;SDS011;10455;48.732;10.266;2022-07-06T13:36:05;5.78;;;1.73;;
20593;SDS011;10455;48.732;10.266;2022-07-06T13:41:08;5.13;;;1.90;;
20593;SDS011;10455;48.732;10.266;2022-07-06T13:46:12;2.80;;;1.90;;
20593;SDS011;10455;48.732;10.266;2022-07-06T13:51:15;2.17;;;1.90;;
20593;SDS011;10455;48.732;10.266;2022-07-06T13:56:17;1.92;;;1.60;;
20593;SDS011;10455;48.732;10.266;2022-07-06T14:01:21;3.25;;;1.48;;
20593;SDS011;10455;48.732;10.266;2022-07-06T14:06:23;4.20;;;1.63;;
20593;SDS011;10455;48.732;10.266;2022-07-06T14:11:25;3.22;;;1.70;;
20593;SDS011;10455;48.732;10.266;2022-07-06T14:16:29;2.10;;;1.63;;
20593;SDS011;10455;48.732;10.266;2022-07-06T14:21:31;2.90;;;1.40;;
20593;SDS011;10455;48.732;10.266;2022-07-06T14:26:33;4.93;;;1.50;;
20593;SDS011;10455;48.732;10.266;2022-07-06T14:31:37;3.20;;;1.55;;
20593;SDS011;10455;48.732;10.266;2022-07-06T14:36:39;4.57;;;1.50;;
20593;SDS011;10455;48.732;10.266;2022-07-06T14:41:41;3.33;;;1.95;;
20593;SDS011;10455;48.732;10.266;2022-07-06T14:46:45;2.13;;;1.73;;
20593;SDS011;10455;48.732;10.266;2022-07-06T14:51:47;2.63;;;1.90;;
20593;SDS011;10455;48.732;10.266;2022-07-06T14:56:50;2.90;;;2.13;;
20593;SDS011;10455;48.732;10.266;2022-07-06T15:01:53;4.22;;;1.85;;
20593;SDS011;10455;48.732;10.266;2022-07-06T15:06:56;2.47;;;1.77;;
20593;SDS011;10455;48.732;10.266;2022-07-06T15:11:58;4.30;;;2.08;;
20593;SDS011;10455;48.732;10.266;2022-07-06T15:17:02;3.35;;;1.90;;
20593;SDS011;10455;48.732;10.266;2022-07-06T15:22:04;3.95;;;2.30;;
20593;SDS011;10455;48.732;10.266;2022-07-06T15:27:06;4.15;;;2.15;;
20593;SDS011;10455;48.732;10.266;2022-07-06T15:32:10;4.47;;;2.20;;
20593;SDS011;10455;48.732;10.266;2022-07-06T15:37:12;5.45;;;2.53;;
20593;SDS011;10455;48.732;10.266;2022-07-06T15:42:14;5.30;;;2.42;;
20593;SDS011;10455;48.732;10.266;2022-07-06T15:47:18;4.97;;;2.40;;
20593;SDS011;10455;48.732;10.266;2022-07-06T15:52:23;3.83;;;2.38;;
20593;SDS011;10455;48.732;10.266;2022-07-06T15:57:25;3.08;;;2.45;;
20593;SDS011;10455;48.732;10.266;2022-07-06T16:02:28;3.30;;;2.67;;
20593;SDS011;10455;48.732;10.266;2022-07-06T16:07:31;3.60;;;2.47;;
20593;SDS011;10455;48.732;10.266;2022-07-06T16:12:33;8.13;;;2.75;;
20593;SDS011;10455;48.732;10.266;2022-07-06T16:17:36;4.88;;;2.60;;
20593;SDS011;10455;48.732;10.266;2022-07-06T16:22:39;6.57;;;2.95;;
20593;SDS011;10455;48.732;10.266;2022-07-06T16:27:41;4.20;;;2.17;;
20593;SDS011;10455;48.732;10.266;2022-07-06T16:32:45;3.72;;;2.60;;
20593;SDS011;10455;48.732;10.266;2022-07-06T16:37:47;4.82;;;3.03;;
20593;SDS011;10455;48.732;10.266;2022-07-06T16:42:49;3.85;;;2.63;;
20593;SDS011;10455;48.732;10.266;2022-07-06T16:47:54;3.28;;;2.80;;
20593;SDS011;10455;48.732;10.266;2022-07-06T16:52:56;5.13;;;2.67;;
20593;SDS011;10455;48.732;10.266;2022-07-06T16:57:58;4.53;;;2.63;;
20593;SDS011;10455;48.732;10.266;2022-07-06T17:03:02;5.60;;;2.40;;
20593;SDS011;10455;48.732;10.266;2022-07-06T17:08:05;4.93;;;2.50;;
20593;SDS011;10455;48.732;10.266;2022-07-06T17:13:08;4.85;;;2.40;;
20593;SDS011;10455;48.732;10.266;2022-07-06T17:18:12;2.80;;;2.25;;
20593;SDS011;10455;48.732;10.266;2022-07-06T17:23:14;3.95;;;2.38;;
20593;SDS011;10455;48.732;10.266;2022-07-06T17:28:17;3.47;;;2.20;;
20593;SDS011;10455;48.732;10.266;2022-07-06T17:33:20;3.13;;;2.30;;
20593;SDS011;10455;48.732;10.266;2022-07-06T17:38:22;3.65;;;2.33;;
20593;SDS011;10455;48.732;10.266;2022-07-06T17:43:24;3.40;;;2.38;;
20593;SDS011;10455;48.732;10.266;2022-07-06T17:48:28;4.18;;;2.40;;
20593;SDS011;10455;48.732;10.266;2022-07-06T17:53:30;3.65;;;2.20;;
20593;SDS011;10455;48.732;10.266;2022-07-06T17:58:32;4.63;;;2.30;;
20593;SDS011;10455;48.732;10.266;2022-07-06T18:03:36;6.63;;;4.63;;
20593;SDS011;10455;48.732;10.266;2022-07-06T18:08:38;4.15;;;2.60;;
20593;SDS011;10455;48.732;10.266;2022-07-06T18:13:41;2.85;;;2.60;;
20593;SDS011;10455;48.732;10.266;2022-07-06T18:18:44;4.35;;;2.72;;
20593;SDS011;10455;48.732;10.266;2022-07-06T18:23:47;4.90;;;3.30;;
20593;SDS011;10455;48.732;10.266;2022-07-06T18:28:49;6.85;;;2.47;;
20593;SDS011;10455;48.732;10.266;2022-07-06T18:33:53;4.35;;;2.38;;
20593;SDS011;10455;48.732;10.266;2022-07-06T18:38:56;4.03;;;2.50;;
20593;SDS011;10455;48.732;10.266;2022-07-06T18:43:58;5.05;;;2.67;;
20593;SDS011;10455;48.732;10.266;2022-07-06T18:49:02;3.05;;;2.30;;
20593;SDS011;10455;48.732;10.266;2022-07-06T18:54:05;4.63;;;2.60;;
20593;SDS011;10455;48.732;10.266;2022-07-06T18:59:07;4.20;;;2.50;;
20593;SDS011;10455;48.732;10.266;2022-07-06T19:04:10;4.18;;;2.75;;
20593;SDS011;10455;48.732;10.266;2022-07-06T19:09:13;4.88;;;2.78;;
20593;SDS011;10455;48.732;10.266;2022-07-06T19:14:15;6.20;;;2.55;;
20593;SDS011;10455;48.732;10.266;2022-07-06T19:19:19;4.55;;;2.55;;
20593;SDS011;10455;48.732;10.266;2022-07-06T19:24:21;5.15;;;2.78;;
20593;SDS011;10455;48.732;10.266;2022-07-06T19:29:23;3.92;;;3.00;;
20593;SDS011;10455;48.732;10.266;2022-07-06T19:34:27;3.72;;;2.70;;
20593;SDS011;10455;48.732;10.266;2022-07-06T19:39:29;4.93;;;3.10;;
20593;SDS011;10455;48.732;10.266;2022-07-06T19:44:33;3.53;;;2.87;;
20593;SDS011;10455;48.732;10.266;2022-07-06T19:49:36;3.30;;;2.97;;
20593;SDS011;10455;48.732;10.266;2022-07-06T19:54:39;4.93;;;2.90;;
20593;SDS011;10455;48.732;10.266;2022-07-06T19:59:41;3.13;;;2.70;;
20593;SDS011;10455;48.732;10.266;2022-07-06T20:04:44;4.67;;;3.20;;
20593;SDS011;10455;48.732;10.266;2022-07-06T20:09:49;4.20;;;3.00;;
20593;SDS011;10455;48.732;10.266;2022-07-06T20:14:51;6.67;;;2.97;;
20593;SDS011;10455;48.732;10.266;2022-07-06T20:19:54;3.30;;;3.00;;
20593;SDS011;10455;48.732;10.266;2022-07-06T20:24:57;3.73;;;3.40;;
20593;SDS011;10455;48.732;10.266;2022-07-06T20:29:59;4.50;;;3.10;;
20593;SDS011;10455;48.732;10.266;2022-07-06T20:35:02;6.23;;;3.30;;
20593;SDS011;10455;48.732;10.266;2022-07-06T20:40:06;4.83;;;3.30;;
20593;SDS011;10455;48.732;10.266;2022-07-06T20:45:09;6.43;;;3.40;;
20593;SDS011;10455;48.732;10.266;2022-07-06T20:50:13;5.10;;;3.40;;
20593;SDS011;10455;48.732;10.266;2022-07-06T20:55:15;5.10;;;3.57;;
20593;SDS011;10455;48.732;10.266;2022-07-06T21:00:17;4.13;;;3.73;;
20593;SDS011;10455;48.732;10.266;2022-07-06T21:05:21;4.40;;;3.67;;
20593;SDS011;10455;48.732;10.266;2022-07-06T21:10:23;6.73;;;3.67;;
20593;SDS011;10455;48.732;10.266;2022-07-06T21:15:25;4.37;;;3.47;;
20593;SDS011;10455;48.732;10.266;2022-07-06T21:20:29;4.80;;;4.23;;
20593;SDS011;10455;48.732;10.266;2022-07-06T21:25:31;4.23;;;3.83;;
20593;SDS011;10455;48.732;10.266;2022-07-06T21:30:34;4.87;;;4.30;;
20593;SDS011;10455;48.732;10.266;2022-07-06T21:35:37;4.90;;;4.37;;
20593;SDS011;10455;48.732;10.266;2022-07-06T21:40:40;5.57;;;4.40;;
20593;SDS011;10455;48.732;10.266;2022-07-06T21:45:42;4.00;;;3.70;;
20593;SDS011;10455;48.732;10.266;2022-07-06T21:50:46;4.93;;;4.27;;
20593;SDS011;10455;48.732;10.266;2022-07-06T21:55:48;6.30;;;4.37;;
20593;SDS011;10455;48.732;10.266;2022-07-06T22:00:50;5.23;;;3.90;;
20593;SDS011;10455;48.732;10.266;2022-07-06T22:05:54;5.00;;;4.50;;
20593;SDS011;10455;48.732;10.266;2022-07-06T22:10:56;4.97;;;4.57;;
20593;SDS011;10455;48.732;10.266;2022-07-06T22:15:58;5.73;;;4.83;;
20593;SDS011;10455;48.732;10.266;2022-07-06T22:21:02;5.80;;;5.30;;
20593;SDS011;10455;48.732;10.266;2022-07-06T22:26:05;6.00;;;4.93;;
20593;SDS011;10455;48.732;10.266;2022-07-06T22:31:10;5.20;;;4.70;;
20593;SDS011;10455;48.732;10.266;2022-07-06T22:36:13;5.37;;;4.87;;
20593;SDS011;10455;48.732;10.266;2022-07-06T22:41:22;7.37;;;5.00;;
20593;SDS011;10455;48.732;10.266;2022-07-06T22:46:24;5.90;;;5.30;;
20593;SDS011;10455;48.732;10.266;2022-07-06T22:51:28;5.53;;;4.77;;
20593;SDS011;10455;48.732;10.266;2022-07-06T22:56:30;6.23;;;5.53;;
20593;SDS011;10455;48.732;10.266;2022-07-06T23:01:32;7.43;;;5.00;;
20593;SDS011;10455;48.732;10.266;2022-07-06T23:06:36;6.07;;;5.47;;
20593;SDS011;10455;48.732;10.266;2022-07-06T23:11:38;6.30;;;5.27;;
20593;SDS011;10455;48.732;10.266;2022-07-06T23:16:40;5.40;;;4.90;;
20593;SDS011;10455;48.732;10.266;2022-07-06T23:21:44;7.33;;;5.33;;
20593;SDS011;10455;48.732;10.266;2022-07-06T23:26:46;5.50;;;5.00;;
20593;SDS011;10455;48.732;10.266;2022-07-06T23:31:48;5.40;;;5.00;;
20593;SDS011;10455;48.732;10.266;2022-07-06T23:36:52;5.70;;;5.20;;
20593;SDS011;10455;48.732;10.266;2022-07-06T23:41:54;6.50;;;5.80;;
20593;SDS011;10455;48.732;10.266;2022-07-06T23:46:57;6.63;;;5.07;;
20593;SDS011;10455;48.732;10.266;2022-07-06T23:52:01;6.40;;;4.67;;
20593;SDS011;10455;48.732;10.266;2022-07-06T23:57:04;5.17;;;4.63;;
